createdAt,value
2018-09-10T00:03:44.074Z,99.90
2018-09-10T00:08:49.624Z,99.90
2018-09-10T00:13:52.623Z,99.90
2018-09-10T00:18:55.652Z,99.90
2018-09-10T00:23:58.801Z,99.90
2018-09-10T00:29:01.862Z,99.90
2018-09-10T00:34:04.897Z,99.90
2018-09-10T00:39:10.731Z,99.90
2018-09-10T00:44:13.779Z,99.90
2018-09-10T00:49:16.859Z,99.90
2018-09-10T00:54:19.895Z,99.90
2018-09-10T00:59:23.089Z,99.90
2018-09-10T01:04:26.240Z,99.90
2018-09-10T01:09:29.297Z,99.90
2018-09-10T01:14:32.479Z,99.90
2018-09-10T01:19:35.687Z,99.90
2018-09-10T01:24:38.848Z,99.90
2018-09-10T01:29:41.847Z,99.90
2018-09-10T01:34:50.320Z,99.90
2018-09-10T01:39:53.398Z,99.90
2018-09-10T01:44:56.740Z,99.90
2018-09-10T01:49:59.908Z,99.90
2018-09-10T01:55:02.964Z,99.90
2018-09-10T02:00:06.129Z,99.90
2018-09-10T02:05:09.202Z,99.90
2018-09-10T02:10:12.234Z,99.90
2018-09-10T02:15:15.399Z,99.90
2018-09-10T02:20:18.441Z,99.90
2018-09-10T02:25:21.642Z,99.90
2018-09-10T02:30:24.885Z,99.90
2018-09-10T02:35:27.941Z,99.90
2018-09-10T02:40:30.986Z,99.90
2018-09-10T02:45:34.199Z,99.90
2018-09-10T02:50:37.219Z,99.90
2018-09-10T02:55:40.273Z,99.90
2018-09-10T03:00:43.429Z,99.90
2018-09-10T03:05:46.573Z,99.90
2018-09-10T03:10:49.634Z,99.90
2018-09-10T03:15:52.767Z,99.90
2018-09-10T03:20:55.896Z,99.90
2018-09-10T03:25:58.895Z,99.90
2018-09-10T03:31:02.037Z,99.90
2018-09-10T03:36:05.101Z,99.90
2018-09-10T03:41:08.136Z,99.90
2018-09-10T03:46:11.255Z,99.90
2018-09-10T03:51:14.263Z,99.90
2018-09-10T03:56:17.323Z,99.90
2018-09-10T04:01:20.367Z,99.90
2018-09-10T04:06:23.407Z,99.90
2018-09-10T04:11:26.487Z,99.90
2018-09-10T04:16:29.611Z,99.90
2018-09-10T04:21:32.639Z,99.90
2018-09-10T04:26:35.726Z,99.90
2018-09-10T04:31:38.746Z,99.90
2018-09-10T04:36:41.794Z,99.90
2018-09-10T04:41:44.803Z,99.90
2018-09-10T04:46:47.919Z,99.90
2018-09-10T04:51:51.088Z,99.90
2018-09-10T04:56:54.203Z,99.90
2018-09-10T05:01:57.214Z,99.90
2018-09-10T05:07:00.287Z,99.90
2018-09-10T05:12:03.323Z,99.90
2018-09-10T05:17:06.444Z,99.90
2018-09-10T05:22:09.725Z,99.90
2018-09-10T05:27:12.662Z,99.90
2018-09-10T05:32:15.683Z,99.90
2018-09-10T05:37:18.694Z,99.90
2018-09-10T05:42:21.797Z,99.90
2018-09-10T05:47:24.868Z,99.90
2018-09-10T05:52:28.180Z,99.90
2018-09-10T05:57:31.266Z,99.90
2018-09-10T06:02:34.347Z,99.90
2018-09-10T06:07:37.419Z,99.90
2018-09-10T06:12:40.474Z,99.90
2018-09-10T06:17:43.513Z,99.90
2018-09-10T06:22:46.560Z,99.90
2018-09-10T06:27:49.631Z,99.90
2018-09-10T06:32:52.723Z,99.90
2018-09-10T06:37:55.777Z,99.90
2018-09-10T06:42:58.859Z,99.90
2018-09-10T06:48:02.066Z,99.90
2018-09-10T06:53:05.282Z,99.90
2018-09-10T06:58:08.315Z,98.40
2018-09-10T07:03:11.434Z,96.90
2018-09-10T07:08:14.450Z,97.10
2018-09-10T07:13:17.542Z,96.30
2018-09-10T07:18:20.719Z,94.90
2018-09-10T07:23:23.784Z,93.80
2018-09-10T07:28:26.865Z,91.90
2018-09-10T07:33:29.937Z,90.90
2018-09-10T07:38:32.992Z,88.40
2018-09-10T07:43:36.115Z,86.40
2018-09-10T07:48:39.196Z,85.40
2018-09-10T07:53:42.330Z,81.70
2018-09-10T07:58:45.365Z,81.20
2018-09-10T08:03:48.452Z,75.70
2018-09-10T08:08:51.621Z,72.40
2018-09-10T08:13:54.647Z,70.90
2018-09-10T08:18:57.846Z,68.90
2018-09-10T08:24:00.927Z,67.60
2018-09-10T08:29:03.906Z,64.30
2018-09-10T08:34:06.983Z,63.40
2018-09-10T08:39:10.026Z,64.80
2018-09-10T08:44:13.061Z,65.10
2018-09-10T08:49:16.065Z,66.10
2018-09-10T08:54:19.235Z,69.40
2018-09-10T08:59:22.111Z,69.50
2018-09-10T09:04:25.187Z,72.10
2018-09-10T09:09:28.227Z,71.40
2018-09-10T09:14:31.272Z,71.50
2018-09-10T09:19:34.284Z,70.90
2018-09-10T09:24:37.343Z,71.90
2018-09-10T09:29:40.501Z,72.30
2018-09-10T09:34:48.941Z,71.10
2018-09-10T09:39:57.412Z,72.00
2018-09-10T09:45:05.841Z,72.80
2018-09-10T09:50:09.006Z,73.60
2018-09-10T09:55:12.077Z,73.60
2018-09-10T10:00:15.104Z,75.00
2018-09-10T10:05:18.184Z,74.80
2018-09-10T10:10:21.531Z,73.70
2018-09-10T10:15:24.697Z,73.30
2018-09-10T10:20:27.770Z,71.60
2018-09-10T10:25:30.792Z,73.60
2018-09-10T10:30:33.813Z,72.50
2018-09-10T10:35:36.859Z,72.00
2018-09-10T10:40:39.894Z,72.90
2018-09-10T10:45:42.984Z,72.40
2018-09-10T10:50:46.016Z,71.50
2018-09-10T10:55:49.084Z,72.50
2018-09-10T11:00:52.127Z,70.00
2018-09-10T11:05:55.256Z,71.00
2018-09-10T11:10:58.332Z,70.30
2018-09-10T11:16:01.639Z,69.30
2018-09-10T11:21:04.914Z,69.00
2018-09-10T11:26:08.161Z,68.80
2018-09-10T11:31:11.441Z,68.80
2018-09-10T11:36:14.787Z,67.50
2018-09-10T11:41:18.968Z,66.90
2018-09-10T11:46:22.353Z,67.00
2018-09-10T11:51:25.753Z,67.20
2018-09-10T11:56:28.948Z,67.50
2018-09-10T12:01:32.032Z,65.90
2018-09-10T12:06:35.032Z,65.20
2018-09-10T12:11:38.053Z,66.00
2018-09-10T12:16:41.153Z,65.90
2018-09-10T12:21:44.197Z,66.80
2018-09-10T12:26:47.233Z,66.10
2018-09-10T12:31:50.282Z,66.30
2018-09-10T12:36:53.320Z,65.40
2018-09-10T12:41:56.454Z,63.30
2018-09-10T12:46:59.470Z,60.20
2018-09-10T12:52:02.547Z,61.30
2018-09-10T12:57:06.008Z,63.50
2018-09-10T13:02:09.052Z,63.50
2018-09-10T13:07:12.173Z,64.10
2018-09-10T13:12:15.220Z,62.70
2018-09-10T13:17:18.289Z,62.10
2018-09-10T13:22:22.241Z,62.00
2018-09-10T13:27:25.277Z,60.70
2018-09-10T13:32:28.405Z,60.20
2018-09-10T13:37:31.473Z,60.30
2018-09-10T13:42:34.534Z,61.20
2018-09-10T13:47:37.589Z,60.30
2018-09-10T13:52:40.704Z,60.70
2018-09-10T13:57:43.877Z,62.00
2018-09-10T14:02:47.030Z,61.10
2018-09-10T14:07:50.096Z,63.00
2018-09-10T14:12:53.132Z,64.20
2018-09-10T14:17:56.183Z,65.00
2018-09-10T14:22:59.289Z,65.90
2018-09-10T14:28:02.360Z,65.50
2018-09-10T14:33:05.406Z,67.20
2018-09-10T14:38:08.460Z,67.50
2018-09-10T14:43:11.686Z,66.90
2018-09-10T14:48:14.799Z,65.10
2018-09-10T14:53:17.810Z,65.10
2018-09-10T14:58:20.880Z,66.20
2018-09-10T15:03:23.984Z,66.00
2018-09-10T15:08:27.061Z,68.00
2018-09-10T15:13:33.904Z,68.90
2018-09-10T15:18:37.001Z,70.00
2018-09-10T15:23:40.028Z,71.30
2018-09-10T15:28:44.150Z,72.00
2018-09-10T15:33:47.183Z,73.00
2018-09-10T15:38:50.217Z,73.10
2018-09-10T15:43:53.233Z,74.00
2018-09-10T15:48:56.349Z,74.80
2018-09-10T15:53:59.375Z,76.00
2018-09-10T15:59:03.100Z,78.50
2018-09-10T16:04:06.125Z,79.80
2018-09-10T16:09:09.435Z,80.60
2018-09-10T16:14:12.495Z,82.40
2018-09-10T16:19:15.551Z,83.10
2018-09-10T16:24:18.652Z,84.80
2018-09-10T16:29:21.753Z,88.40
2018-09-10T16:34:24.778Z,90.20
2018-09-10T16:39:27.836Z,92.20
2018-09-10T16:44:30.959Z,93.10
2018-09-10T16:49:33.992Z,93.50
2018-09-10T16:54:37.165Z,96.00
2018-09-10T16:59:40.195Z,97.40
2018-09-10T17:04:43.191Z,98.20
2018-09-10T17:09:46.324Z,99.50
2018-09-10T17:14:49.523Z,99.40
2018-09-10T17:19:52.537Z,99.40
2018-09-10T17:24:55.573Z,99.30
2018-09-10T17:29:58.772Z,99.90
2018-09-10T17:35:01.819Z,99.90
2018-09-10T17:40:04.878Z,99.90
2018-09-10T17:45:07.944Z,99.90
2018-09-10T17:50:11.027Z,99.90
2018-09-10T17:55:14.121Z,99.90
2018-09-10T18:00:17.354Z,99.90
2018-09-10T18:05:20.879Z,99.60
2018-09-10T18:10:23.962Z,98.60
2018-09-10T18:15:27.006Z,97.80
2018-09-10T18:20:30.070Z,96.60
2018-09-10T18:25:33.120Z,95.60
2018-09-10T18:30:36.230Z,95.10
2018-09-10T18:35:39.494Z,95.10
2018-09-10T18:40:42.474Z,94.70
2018-09-10T18:45:45.500Z,95.20
2018-09-10T18:50:48.593Z,95.10
2018-09-10T18:55:51.656Z,95.00
2018-09-10T19:00:54.775Z,95.50
2018-09-10T19:05:57.852Z,95.40
2018-09-10T19:11:00.955Z,95.90
2018-09-10T19:16:03.995Z,96.10
2018-09-10T19:21:07.456Z,97.20
2018-09-10T19:26:10.540Z,97.40
2018-09-10T19:31:20.140Z,97.10
2018-09-10T19:36:23.429Z,97.30
2018-09-10T19:41:26.476Z,97.80
2018-09-10T19:46:29.548Z,98.80
2018-09-10T19:51:32.775Z,99.70
2018-09-10T19:56:35.846Z,99.90
2018-09-10T20:01:38.973Z,99.90
2018-09-10T20:06:42.032Z,99.90
2018-09-10T20:11:45.097Z,99.90
2018-09-10T20:16:48.131Z,99.90
2018-09-10T20:21:51.343Z,99.90
2018-09-10T20:26:54.537Z,99.90
2018-09-10T20:31:57.697Z,99.90
2018-09-10T20:42:18.340Z,99.90
2018-09-10T20:47:21.411Z,99.90
2018-09-10T20:52:24.422Z,99.90
2018-09-10T20:57:27.957Z,99.90
2018-09-10T21:02:30.963Z,99.90
2018-09-10T21:07:34.183Z,99.90
2018-09-10T21:12:37.210Z,99.90
2018-09-10T21:17:41.309Z,99.90
2018-09-10T21:22:44.392Z,99.90
2018-09-10T21:27:47.411Z,99.90
2018-09-10T21:32:50.436Z,99.90
2018-09-10T21:37:53.500Z,99.90
2018-09-10T21:42:56.690Z,99.90
2018-09-10T21:47:59.723Z,99.90
2018-09-10T21:53:02.818Z,99.90
2018-09-10T21:58:05.865Z,99.90
2018-09-10T22:03:08.956Z,99.90
2018-09-10T22:08:12.035Z,99.90
2018-09-10T22:13:15.081Z,99.90
2018-09-10T22:18:18.144Z,99.90
2018-09-10T22:23:21.280Z,99.90
2018-09-10T22:28:24.314Z,99.90
2018-09-10T22:33:27.505Z,99.90
2018-09-10T22:38:30.528Z,99.90
2018-09-10T22:43:33.527Z,99.90
2018-09-10T22:48:36.633Z,99.90
2018-09-10T22:53:39.657Z,99.90
2018-09-10T22:58:42.731Z,99.90
2018-09-10T23:03:45.779Z,99.90
2018-09-10T23:08:49.197Z,99.90
2018-09-10T23:13:52.223Z,99.90
2018-09-10T23:18:55.294Z,99.90
2018-09-10T23:23:58.420Z,99.90
2018-09-10T23:29:01.638Z,99.90
2018-09-10T23:34:04.666Z,99.90
2018-09-10T23:39:08.392Z,99.90
2018-09-10T23:44:11.452Z,99.90
2018-09-10T23:49:14.595Z,99.90
2018-09-10T23:54:17.672Z,99.90
2018-09-10T23:59:20.689Z,99.90
